createdAt,value
2018-05-07T00:00:10.159Z,12.11
2018-05-07T00:01:10.067Z,12.09
2018-05-07T00:02:09.929Z,12.02
2018-05-07T00:03:09.785Z,11.97
2018-05-07T00:04:09.663Z,11.93
2018-05-07T00:05:09.543Z,11.89
2018-05-07T00:06:09.437Z,11.85
2018-05-07T00:07:09.295Z,11.89
2018-05-07T00:08:09.176Z,11.89
2018-05-07T00:09:09.048Z,11.90
2018-05-07T00:10:08.926Z,11.87
2018-05-07T00:11:08.803Z,11.99
2018-05-07T00:12:08.690Z,11.78
2018-05-07T00:13:08.566Z,11.82
2018-05-07T00:14:08.436Z,11.78
2018-05-07T00:15:08.315Z,11.70
2018-05-07T00:16:08.188Z,11.78
2018-05-07T00:17:08.072Z,11.70
2018-05-07T00:18:07.943Z,11.67
2018-05-07T00:19:07.822Z,11.65
2018-05-07T00:20:07.703Z,11.68
2018-05-07T00:21:07.574Z,11.72
2018-05-07T00:22:07.484Z,11.80
2018-05-07T00:23:07.330Z,11.72
2018-05-07T00:24:07.206Z,11.78
2018-05-07T00:25:07.094Z,11.72
2018-05-07T00:26:06.965Z,11.78
2018-05-07T00:27:06.863Z,11.71
2018-05-07T00:28:06.712Z,11.86
2018-05-07T00:29:06.590Z,11.86
2018-05-07T00:30:06.540Z,11.83
2018-05-07T00:31:06.347Z,11.72
2018-05-07T00:32:06.225Z,11.74
2018-05-07T00:33:06.099Z,11.82
2018-05-07T00:34:05.975Z,11.71
2018-05-07T00:35:05.852Z,11.59
2018-05-07T00:36:05.730Z,11.54
2018-05-07T00:37:05.610Z,11.49
2018-05-07T00:38:05.488Z,11.43
2018-05-07T00:39:05.364Z,11.38
2018-05-07T00:40:05.240Z,11.34
2018-05-07T00:41:05.115Z,11.25
2018-05-07T00:42:04.995Z,11.34
2018-05-07T00:43:04.872Z,11.25
2018-05-07T00:44:04.750Z,11.24
2018-05-07T00:45:04.626Z,11.21
2018-05-07T00:46:04.502Z,11.17
2018-05-07T00:47:04.380Z,11.17
2018-05-07T00:48:04.256Z,11.27
2018-05-07T00:49:04.131Z,11.21
2018-05-07T00:50:04.009Z,11.25
2018-05-07T00:51:03.885Z,11.19
2018-05-07T00:52:03.761Z,11.24
2018-05-07T00:53:03.638Z,11.14
2018-05-07T00:54:03.517Z,11.16
2018-05-07T00:55:03.394Z,11.20
2018-05-07T00:56:03.268Z,11.14
2018-05-07T00:57:03.148Z,11.01
2018-05-07T00:58:03.022Z,11.03
2018-05-07T00:59:02.897Z,11.03
2018-05-07T01:00:02.773Z,11.02
2018-05-07T01:01:02.650Z,11.01
2018-05-07T01:02:02.529Z,10.91
2018-05-07T01:03:02.407Z,10.84
2018-05-07T01:04:02.288Z,10.88
2018-05-07T01:05:02.155Z,10.81
2018-05-07T01:06:02.036Z,10.83
2018-05-07T01:07:01.912Z,10.86
2018-05-07T01:08:01.785Z,10.80
2018-05-07T01:09:01.664Z,10.86
2018-05-07T01:10:01.541Z,10.77
2018-05-07T01:11:01.417Z,10.77
2018-05-07T01:12:01.315Z,10.77
2018-05-07T01:13:01.168Z,10.73
2018-05-07T01:14:01.045Z,10.74
2018-05-07T01:15:00.921Z,10.66
2018-05-07T01:16:00.799Z,10.71
2018-05-07T01:17:00.676Z,10.59
2018-05-07T01:18:00.552Z,10.62
2018-05-07T01:19:00.432Z,10.59
2018-05-07T01:20:00.304Z,10.58
2018-05-07T01:21:00.179Z,10.58
2018-05-07T01:22:00.055Z,10.58
2018-05-07T01:22:59.931Z,10.46
2018-05-07T01:23:59.812Z,10.51
2018-05-07T01:24:59.683Z,10.53
2018-05-07T01:25:59.559Z,10.47
2018-05-07T01:26:59.437Z,10.43
2018-05-07T01:27:59.315Z,10.36
2018-05-07T01:28:59.193Z,10.40
2018-05-07T01:29:59.065Z,10.43
2018-05-07T01:30:59.002Z,10.37
2018-05-07T01:31:58.816Z,10.39
2018-05-07T01:32:58.696Z,10.42
2018-05-07T01:33:58.570Z,10.39
2018-05-07T01:34:58.446Z,10.43
2018-05-07T01:35:58.324Z,10.39
2018-05-07T01:36:58.197Z,10.43
2018-05-07T01:37:58.073Z,10.37
2018-05-07T01:38:57.947Z,10.33
2018-05-07T01:39:57.827Z,10.34
2018-05-07T01:40:57.701Z,10.39
2018-05-07T01:41:57.577Z,10.26
2018-05-07T01:42:57.450Z,10.30
2018-05-07T01:43:57.327Z,10.28
2018-05-07T01:44:57.203Z,10.28
2018-05-07T01:45:57.082Z,10.26
2018-05-07T01:46:56.957Z,10.24
2018-05-07T01:47:56.833Z,10.22
2018-05-07T01:48:56.707Z,10.21
2018-05-07T01:49:56.585Z,10.24
2018-05-07T01:50:56.460Z,10.22
2018-05-07T01:51:56.332Z,10.26
2018-05-07T01:52:56.212Z,10.17
2018-05-07T01:53:56.085Z,10.25
2018-05-07T01:54:55.960Z,10.19
2018-05-07T01:55:55.837Z,10.28
2018-05-07T01:56:55.713Z,10.22
2018-05-07T01:57:55.587Z,10.18
2018-05-07T01:58:55.464Z,10.28
2018-05-07T01:59:55.339Z,10.17
2018-05-07T02:00:55.216Z,10.24
2018-05-07T02:01:55.093Z,10.21
2018-05-07T02:02:54.967Z,10.21
2018-05-07T02:03:54.843Z,10.24
2018-05-07T02:04:54.721Z,10.19
2018-05-07T02:05:54.594Z,10.18
2018-05-07T02:06:54.469Z,10.19
2018-05-07T02:07:54.343Z,10.12
2018-05-07T02:08:54.219Z,10.15
2018-05-07T02:09:54.098Z,10.14
2018-05-07T02:10:53.973Z,10.15
2018-05-07T02:11:53.847Z,10.17
2018-05-07T02:12:53.722Z,10.15
2018-05-07T02:13:53.603Z,10.12
2018-05-07T02:14:53.476Z,10.12
2018-05-07T02:15:53.350Z,10.15
2018-05-07T02:16:53.225Z,10.06
2018-05-07T02:17:53.101Z,10.14
2018-05-07T02:18:52.976Z,10.21
2018-05-07T02:19:52.851Z,10.10
2018-05-07T02:20:52.730Z,10.22
2018-05-07T02:21:52.603Z,10.21
2018-05-07T02:22:52.478Z,10.18
2018-05-07T02:23:52.357Z,10.03
2018-05-07T02:24:52.232Z,10.04
2018-05-07T02:25:52.109Z,10.14
2018-05-07T02:26:51.983Z,10.06
2018-05-07T02:27:51.862Z,10.09
2018-05-07T02:28:51.734Z,10.03
2018-05-07T02:29:51.611Z,10.14
2018-05-07T02:30:51.492Z,10.24
2018-05-07T02:31:51.362Z,10.24
2018-05-07T02:32:51.237Z,10.18
2018-05-07T02:33:51.113Z,10.24
2018-05-07T02:34:50.990Z,10.25
2018-05-07T02:35:50.865Z,10.26
2018-05-07T02:36:50.739Z,10.18
2018-05-07T02:37:50.616Z,10.18
2018-05-07T02:38:50.517Z,10.21
2018-05-07T02:39:50.371Z,10.12
2018-05-07T02:40:50.244Z,10.09
2018-05-07T02:41:50.125Z,10.14
2018-05-07T02:42:49.996Z,10.15
2018-05-07T02:43:49.868Z,10.01
2018-05-07T02:44:49.747Z,10.10
2018-05-07T02:45:49.619Z,10.03
2018-05-07T02:46:49.500Z,9.99
2018-05-07T02:47:49.375Z,10.04
2018-05-07T02:48:49.246Z,10.07
2018-05-07T02:49:49.122Z,10.07
2018-05-07T02:50:48.997Z,10.10
2018-05-07T02:51:48.873Z,9.94
2018-05-07T02:52:48.747Z,10.00
2018-05-07T02:53:48.626Z,9.93
2018-05-07T02:54:48.498Z,10.00
2018-05-07T02:55:48.373Z,10.01
2018-05-07T02:56:48.254Z,9.99
2018-05-07T02:57:48.131Z,9.94
2018-05-07T02:58:48.001Z,9.89
2018-05-07T02:59:47.876Z,9.85
2018-05-07T03:00:47.750Z,9.85
2018-05-07T03:01:47.627Z,9.88
2018-05-07T03:02:47.500Z,9.85
2018-05-07T03:03:47.379Z,9.88
2018-05-07T03:04:47.252Z,9.86
2018-05-07T03:05:47.128Z,9.83
2018-05-07T03:06:47.005Z,9.89
2018-05-07T03:07:46.876Z,9.86
2018-05-07T03:08:46.754Z,9.99
2018-05-07T03:09:46.630Z,9.93
2018-05-07T03:10:46.505Z,9.88
2018-05-07T03:11:46.381Z,9.78
2018-05-07T03:12:46.264Z,9.73
2018-05-07T03:13:46.131Z,9.75
2018-05-07T03:14:46.006Z,9.76
2018-05-07T03:15:45.882Z,9.78
2018-05-07T03:16:45.757Z,9.76
2018-05-07T03:17:45.633Z,9.89
2018-05-07T03:18:45.506Z,9.82
2018-05-07T03:19:45.383Z,9.86
2018-05-07T03:20:45.255Z,9.88
2018-05-07T03:21:45.133Z,9.85
2018-05-07T03:22:45.007Z,9.85
2018-05-07T03:23:44.880Z,9.85
2018-05-07T03:24:44.808Z,9.79
2018-05-07T03:25:44.633Z,9.81
2018-05-07T03:26:44.508Z,9.81
2018-05-07T03:27:44.385Z,9.81
2018-05-07T03:28:44.261Z,9.82
2018-05-07T03:29:44.137Z,9.73
2018-05-07T03:30:44.012Z,9.70
2018-05-07T03:31:43.886Z,9.70
2018-05-07T03:32:43.762Z,9.70
2018-05-07T03:33:43.636Z,9.79
2018-05-07T03:34:43.512Z,9.64
2018-05-07T03:35:43.387Z,9.63
2018-05-07T03:36:43.260Z,9.58
2018-05-07T03:37:43.170Z,9.58
2018-05-07T03:38:43.013Z,9.53
2018-05-07T03:39:42.888Z,9.58
2018-05-07T03:40:42.766Z,9.60
2018-05-07T03:41:42.642Z,9.63
2018-05-07T03:42:42.522Z,9.66
2018-05-07T03:43:42.392Z,9.64
2018-05-07T03:44:42.266Z,9.52
2018-05-07T03:45:42.141Z,9.49
2018-05-07T03:46:42.018Z,9.42
2018-05-07T03:47:41.894Z,9.48
2018-05-07T03:48:41.779Z,9.49
2018-05-07T03:49:41.645Z,9.63
2018-05-07T03:50:41.522Z,9.58
2018-05-07T03:51:41.394Z,9.70
2018-05-07T03:52:41.269Z,9.76
2018-05-07T03:53:41.144Z,9.71
2018-05-07T03:54:41.022Z,9.73
2018-05-07T03:55:40.896Z,9.71
2018-05-07T03:56:40.773Z,9.73
2018-05-07T03:57:40.649Z,9.73
2018-05-07T03:58:40.521Z,9.67
2018-05-07T03:59:40.486Z,9.73
2018-05-07T04:00:40.275Z,9.64
2018-05-07T04:01:40.151Z,9.78
2018-05-07T04:02:40.022Z,9.64
2018-05-07T04:03:39.901Z,9.64
2018-05-07T04:04:39.775Z,9.64
2018-05-07T04:05:39.649Z,9.60
2018-05-07T04:06:39.522Z,9.56
2018-05-07T04:07:39.400Z,9.58
2018-05-07T04:08:39.279Z,9.60
2018-05-07T04:09:39.152Z,9.67
2018-05-07T04:10:39.026Z,9.64
2018-05-07T04:11:38.901Z,9.64
2018-05-07T04:12:38.779Z,9.66
2018-05-07T04:13:38.651Z,9.64
2018-05-07T04:14:38.528Z,9.60
2018-05-07T04:15:38.402Z,9.78
2018-05-07T04:16:38.278Z,9.63
2018-05-07T04:17:38.153Z,9.60
2018-05-07T04:18:38.026Z,9.64
2018-05-07T04:19:37.902Z,9.64
2018-05-07T04:20:37.781Z,9.66
2018-05-07T04:21:37.651Z,9.60
2018-05-07T04:22:37.601Z,9.60
2018-05-07T04:23:37.403Z,9.63
2018-05-07T04:24:37.277Z,9.66
2018-05-07T04:25:37.152Z,9.64
2018-05-07T04:26:37.028Z,9.66
2018-05-07T04:27:36.905Z,9.68
2018-05-07T04:28:36.779Z,9.71
2018-05-07T04:29:36.655Z,9.68
2018-05-07T04:30:36.532Z,9.73
2018-05-07T04:31:36.402Z,9.71
2018-05-07T04:32:36.277Z,9.73
2018-05-07T04:33:36.218Z,9.71
2018-05-07T04:34:36.030Z,9.73
2018-05-07T04:35:35.905Z,9.76
2018-05-07T04:36:35.778Z,9.76
2018-05-07T04:37:35.654Z,9.83
2018-05-07T04:38:35.528Z,9.81
2018-05-07T04:39:35.401Z,9.83
2018-05-07T04:40:35.279Z,9.81
2018-05-07T04:41:35.156Z,9.73
2018-05-07T04:42:35.029Z,9.76
2018-05-07T04:43:34.902Z,9.86
2018-05-07T04:44:34.781Z,9.83
2018-05-07T04:45:34.654Z,9.88
2018-05-07T04:46:34.530Z,9.91
2018-05-07T04:47:34.406Z,9.86
2018-05-07T04:48:34.281Z,9.97
2018-05-07T04:49:34.157Z,10.00
2018-05-07T04:50:34.031Z,9.97
2018-05-07T04:51:33.908Z,9.94
2018-05-07T04:52:33.794Z,10.06
2018-05-07T04:53:33.658Z,10.12
2018-05-07T04:54:33.536Z,10.10
2018-05-07T04:55:33.407Z,10.19
2018-05-07T04:56:33.286Z,10.15
2018-05-07T04:57:33.160Z,10.22
2018-05-07T04:58:33.038Z,10.25
2018-05-07T04:59:32.911Z,10.37
2018-05-07T05:00:32.787Z,10.30
2018-05-07T05:01:32.662Z,10.26
2018-05-07T05:02:32.542Z,10.28
2018-05-07T05:03:32.413Z,10.39
2018-05-07T05:04:32.293Z,10.39
2018-05-07T05:05:32.172Z,10.42
2018-05-07T05:06:32.044Z,10.51
2018-05-07T05:07:31.918Z,10.47
2018-05-07T05:08:31.798Z,10.51
2018-05-07T05:09:31.671Z,10.63
2018-05-07T05:10:31.544Z,10.62
2018-05-07T05:11:31.421Z,10.62
2018-05-07T05:12:31.301Z,10.62
2018-05-07T05:13:31.176Z,10.55
2018-05-07T05:14:31.051Z,10.42
2018-05-07T05:15:30.934Z,10.46
2018-05-07T05:16:30.805Z,10.52
2018-05-07T05:17:30.684Z,10.43
2018-05-07T05:18:30.556Z,10.44
2018-05-07T05:19:30.433Z,10.43
2018-05-07T05:20:30.307Z,10.47
2018-05-07T05:21:30.230Z,10.53
2018-05-07T05:22:30.060Z,10.52
2018-05-07T05:23:29.938Z,10.44
2018-05-07T05:24:29.814Z,10.53
2018-05-07T05:25:29.690Z,10.32
2018-05-07T05:26:29.563Z,10.36
2018-05-07T05:27:29.442Z,10.37
2018-05-07T05:28:29.315Z,10.37
2018-05-07T05:29:29.193Z,10.42
2018-05-07T05:30:29.069Z,10.56
2018-05-07T05:31:28.946Z,10.60
2018-05-07T05:32:28.821Z,10.65
2018-05-07T05:33:28.698Z,10.76
2018-05-07T05:34:28.574Z,10.77
2018-05-07T05:35:28.449Z,10.86
2018-05-07T05:36:28.327Z,10.91
2018-05-07T05:37:28.202Z,11.13
2018-05-07T05:38:28.078Z,11.19
2018-05-07T05:39:27.951Z,11.17
2018-05-07T05:40:27.830Z,11.24
2018-05-07T05:41:27.706Z,11.35
2018-05-07T05:42:27.581Z,11.41
2018-05-07T05:43:27.541Z,11.44
2018-05-07T05:44:27.333Z,11.57
2018-05-07T05:45:27.208Z,11.65
2018-05-07T05:46:27.086Z,11.78
2018-05-07T05:47:26.964Z,11.74
2018-05-07T05:48:26.839Z,11.86
2018-05-07T05:49:26.719Z,11.94
2018-05-07T05:50:26.593Z,11.97
2018-05-07T05:51:26.468Z,11.97
2018-05-07T05:52:26.346Z,12.05
2018-05-07T05:53:26.222Z,12.04
2018-05-07T05:54:26.102Z,12.08
2018-05-07T05:55:25.978Z,12.12
2018-05-07T05:56:25.922Z,12.21
2018-05-07T05:57:25.733Z,12.15
2018-05-07T05:58:25.609Z,12.26
2018-05-07T05:59:25.484Z,12.41
2018-05-07T06:00:25.361Z,12.31
2018-05-07T06:01:25.240Z,12.23
2018-05-07T06:02:25.114Z,12.29
2018-05-07T06:03:24.996Z,12.34
2018-05-07T06:04:24.873Z,12.37
2018-05-07T06:05:24.749Z,12.42
2018-05-07T06:06:24.624Z,12.49
2018-05-07T06:07:24.506Z,12.52
2018-05-07T06:08:24.379Z,12.57
2018-05-07T06:09:24.259Z,12.48
2018-05-07T06:10:24.134Z,12.57
2018-05-07T06:11:24.010Z,12.56
2018-05-07T06:12:23.892Z,12.51
2018-05-07T06:13:23.768Z,12.52
2018-05-07T06:14:23.722Z,12.57
2018-05-07T06:15:23.522Z,12.67
2018-05-07T06:16:23.464Z,12.84
2018-05-07T06:17:23.278Z,12.96
2018-05-07T06:18:23.156Z,13.29
2018-05-07T06:19:23.032Z,13.37
2018-05-07T06:20:22.908Z,13.54
2018-05-07T06:21:22.803Z,13.65
2018-05-07T06:22:22.666Z,13.71
2018-05-07T06:23:22.541Z,13.84
2018-05-07T06:24:22.418Z,13.79
2018-05-07T06:25:22.300Z,13.88
2018-05-07T06:26:22.175Z,13.84
2018-05-07T06:27:22.067Z,13.83
2018-05-07T06:28:21.932Z,13.80
2018-05-07T06:29:21.809Z,13.77
2018-05-07T06:30:21.693Z,13.74
2018-05-07T06:31:21.571Z,13.74
2018-05-07T06:32:21.443Z,13.74
2018-05-07T06:33:21.323Z,13.92
2018-05-07T06:34:21.229Z,13.94
2018-05-07T06:35:21.077Z,14.02
2018-05-07T06:36:20.958Z,14.04
2018-05-07T06:37:20.833Z,14.02
2018-05-07T06:38:20.714Z,14.19
2018-05-07T06:39:20.590Z,14.12
2018-05-07T06:40:20.472Z,14.01
2018-05-07T06:41:20.350Z,13.95
2018-05-07T06:42:20.224Z,14.04
2018-05-07T06:43:20.103Z,14.12
2018-05-07T06:44:19.982Z,14.20
2018-05-07T06:45:19.859Z,14.24
2018-05-07T06:46:19.741Z,14.20
2018-05-07T06:47:19.615Z,14.29
2018-05-07T06:48:19.495Z,14.46
2018-05-07T06:49:19.375Z,14.60
2018-05-07T06:50:19.254Z,14.50
2018-05-07T06:51:19.132Z,14.65
2018-05-07T06:52:19.008Z,14.69
2018-05-07T06:53:18.889Z,14.72
2018-05-07T06:54:18.765Z,14.65
2018-05-07T06:55:18.645Z,14.78
2018-05-07T06:56:18.524Z,14.93
2018-05-07T06:57:18.404Z,15.03
2018-05-07T06:58:18.284Z,15.03
2018-05-07T06:59:18.162Z,15.03
2018-05-07T07:00:18.040Z,15.03
2018-05-07T07:01:17.916Z,15.19
2018-05-07T07:02:17.817Z,15.23
2018-05-07T07:03:17.675Z,15.28
2018-05-07T07:04:17.556Z,15.28
2018-05-07T07:05:17.433Z,15.31
2018-05-07T07:06:17.314Z,15.39
2018-05-07T07:07:17.192Z,15.48
2018-05-07T07:08:17.138Z,15.51
2018-05-07T07:09:16.949Z,15.60
2018-05-07T07:10:16.826Z,15.64
2018-05-07T07:11:16.707Z,15.74
2018-05-07T07:12:16.591Z,15.76
2018-05-07T07:13:16.465Z,15.68
2018-05-07T07:14:16.342Z,15.93
2018-05-07T07:15:16.223Z,15.89
2018-05-07T07:16:16.111Z,15.93
2018-05-07T07:17:15.984Z,15.74
2018-05-07T07:18:15.861Z,15.79
2018-05-07T07:19:15.740Z,15.97
2018-05-07T07:20:15.622Z,15.97
2018-05-07T07:21:15.499Z,15.86
2018-05-07T07:22:15.379Z,16.01
2018-05-07T07:23:15.259Z,16.15
2018-05-07T07:24:15.140Z,16.34
2018-05-07T07:25:15.017Z,16.37
2018-05-07T07:26:14.895Z,16.23
2018-05-07T07:27:14.776Z,16.20
2018-05-07T07:28:14.662Z,16.23
2018-05-07T07:29:14.536Z,16.15
2018-05-07T07:30:14.413Z,16.16
2018-05-07T07:31:14.296Z,16.14
2018-05-07T07:32:14.182Z,16.34
2018-05-07T07:33:14.056Z,16.50
2018-05-07T07:34:13.933Z,16.60
2018-05-07T07:35:13.813Z,16.73
2018-05-07T07:36:13.693Z,16.78
2018-05-07T07:37:13.576Z,16.77
2018-05-07T07:38:13.453Z,16.77
2018-05-07T07:39:13.334Z,16.85
2018-05-07T07:40:13.213Z,16.86
2018-05-07T07:41:13.099Z,16.78
2018-05-07T07:42:12.973Z,16.86
2018-05-07T07:43:12.855Z,16.77
2018-05-07T07:44:12.732Z,16.86
2018-05-07T07:45:12.613Z,16.89
2018-05-07T07:46:12.493Z,16.86
2018-05-07T07:47:12.463Z,16.80
2018-05-07T07:48:12.333Z,16.80
2018-05-07T07:49:12.138Z,16.86
2018-05-07T07:50:12.014Z,16.90
2018-05-07T07:51:11.894Z,16.96
2018-05-07T07:52:11.777Z,16.93
2018-05-07T07:53:11.655Z,17.07
2018-05-07T07:54:11.537Z,17.30
2018-05-07T07:55:11.419Z,17.17
2018-05-07T07:56:11.304Z,17.17
2018-05-07T07:57:11.178Z,17.13
2018-05-07T07:58:11.057Z,17.23
2018-05-07T07:59:10.936Z,17.35
2018-05-07T08:00:10.817Z,17.44
2018-05-07T08:01:10.699Z,17.59
2018-05-07T08:02:10.579Z,17.51
2018-05-07T08:03:10.458Z,17.51
2018-05-07T08:04:10.357Z,17.64
2018-05-07T08:05:10.220Z,17.51
2018-05-07T08:06:10.101Z,17.53
2018-05-07T08:07:09.985Z,17.62
2018-05-07T08:08:09.860Z,17.62
2018-05-07T08:09:09.742Z,17.62
2018-05-07T08:10:09.628Z,17.78
2018-05-07T08:11:09.508Z,17.91
2018-05-07T08:12:09.499Z,18.15
2018-05-07T08:13:09.266Z,18.22
2018-05-07T08:14:09.144Z,17.91
2018-05-07T08:15:09.026Z,17.95
2018-05-07T08:16:08.911Z,17.64
2018-05-07T08:17:08.789Z,17.69
2018-05-07T08:18:08.668Z,17.84
2018-05-07T08:19:08.552Z,17.82
2018-05-07T08:20:08.433Z,17.85
2018-05-07T08:21:08.316Z,17.91
2018-05-07T08:22:08.193Z,18.02
2018-05-07T08:23:08.076Z,18.12
2018-05-07T08:24:07.954Z,17.95
2018-05-07T08:25:07.839Z,18.04
2018-05-07T08:26:07.721Z,18.13
2018-05-07T08:27:07.598Z,18.15
2018-05-07T08:28:07.483Z,18.19
2018-05-07T08:29:07.366Z,18.07
2018-05-07T08:30:07.247Z,18.19
2018-05-07T08:31:07.129Z,18.07
2018-05-07T08:32:07.008Z,17.97
2018-05-07T08:33:06.931Z,18.12
2018-05-07T08:34:06.767Z,18.28
2018-05-07T08:35:06.651Z,18.42
2018-05-07T08:36:06.534Z,18.34
2018-05-07T08:37:06.412Z,18.44
2018-05-07T08:38:06.297Z,18.47
2018-05-07T08:39:06.180Z,18.46
2018-05-07T08:40:06.058Z,18.76
2018-05-07T08:41:05.939Z,18.84
2018-05-07T08:42:05.818Z,18.82
2018-05-07T08:43:05.701Z,18.70
2018-05-07T08:44:05.581Z,18.86
2018-05-07T08:45:05.464Z,18.77
2018-05-07T08:46:05.351Z,18.68
2018-05-07T08:47:05.230Z,18.72
2018-05-07T08:48:05.115Z,18.82
2018-05-07T08:49:04.996Z,18.97
2018-05-07T08:50:04.873Z,19.33
2018-05-07T08:51:04.841Z,18.97
2018-05-07T08:52:04.635Z,19.24
2018-05-07T08:53:04.628Z,19.33
2018-05-07T08:54:04.401Z,19.57
2018-05-07T08:55:04.290Z,19.78
2018-05-07T08:56:04.164Z,20.00
2018-05-07T08:57:04.050Z,19.91
2018-05-07T08:58:03.929Z,19.90
2018-05-07T08:59:03.814Z,19.84
2018-05-07T09:00:03.695Z,19.80
2018-05-07T09:01:03.578Z,19.88
2018-05-07T09:02:03.464Z,20.00
2018-05-07T09:03:03.343Z,20.23
2018-05-07T09:04:03.226Z,20.21
2018-05-07T09:05:03.108Z,20.00
2018-05-07T09:06:02.991Z,19.79
2018-05-07T09:07:02.874Z,19.54
2018-05-07T09:08:02.850Z,19.54
2018-05-07T09:09:02.638Z,19.86
2018-05-07T09:10:02.526Z,20.03
2018-05-07T09:11:02.418Z,20.00
2018-05-07T09:12:02.289Z,20.34
2018-05-07T09:13:02.172Z,20.41
2018-05-07T09:14:02.094Z,20.61
2018-05-07T09:15:01.940Z,20.81
2018-05-07T09:16:01.819Z,20.87
2018-05-07T09:17:01.710Z,20.91
2018-05-07T09:18:01.586Z,20.86
2018-05-07T09:19:01.533Z,20.83
2018-05-07T09:20:01.354Z,20.69
2018-05-07T09:21:01.238Z,20.99
2018-05-07T09:22:01.121Z,21.04
2018-05-07T09:23:01.005Z,21.05
2018-05-07T09:24:00.889Z,20.77
2018-05-07T09:25:00.771Z,20.41
2018-05-07T09:26:00.654Z,20.41
2018-05-07T09:27:00.539Z,20.62
2018-05-07T09:28:00.423Z,20.87
2018-05-07T09:29:00.306Z,21.23
2018-05-07T09:30:00.189Z,21.44
2018-05-07T09:31:00.073Z,21.63
2018-05-07T09:31:59.958Z,21.44
2018-05-07T09:32:59.838Z,21.48
2018-05-07T09:33:59.723Z,21.35
2018-05-07T09:34:59.606Z,21.35
2018-05-07T09:35:59.490Z,21.09
2018-05-07T09:36:59.394Z,21.02
2018-05-07T09:37:59.258Z,21.26
2018-05-07T09:38:59.143Z,21.09
2018-05-07T09:39:59.025Z,21.16
2018-05-07T09:40:58.911Z,20.86
2018-05-07T09:41:58.793Z,20.79
2018-05-07T09:42:58.726Z,20.50
2018-05-07T09:43:58.561Z,20.05
2018-05-07T09:44:58.443Z,19.66
2018-05-07T09:45:58.328Z,19.86
2018-05-07T09:46:58.209Z,19.91
2018-05-07T09:47:58.095Z,20.31
2018-05-07T09:48:58.058Z,20.51
2018-05-07T09:49:57.862Z,20.77
2018-05-07T09:50:57.745Z,20.77
2018-05-07T09:51:57.631Z,20.86
2018-05-07T09:52:57.511Z,20.81
2018-05-07T09:53:57.394Z,20.91
2018-05-07T09:54:57.277Z,20.76
2018-05-07T09:55:57.164Z,20.53
2018-05-07T09:56:57.177Z,20.21
2018-05-07T09:57:56.930Z,19.72
2018-05-07T09:58:56.811Z,19.35
2018-05-07T09:59:56.697Z,19.05
2018-05-07T10:00:56.578Z,18.74
2018-05-07T10:01:56.460Z,18.44
2018-05-07T10:02:56.346Z,18.33
2018-05-07T10:03:56.232Z,18.22
2018-05-07T10:04:56.114Z,18.09
2018-05-07T10:05:55.995Z,17.92
2018-05-07T10:06:55.876Z,17.92
2018-05-07T10:07:55.759Z,17.99
2018-05-07T10:08:55.641Z,17.79
2018-05-07T10:09:55.522Z,17.88
2018-05-07T10:10:55.405Z,17.97
2018-05-07T10:11:55.287Z,18.03
2018-05-07T10:12:55.167Z,17.88
2018-05-07T10:13:55.050Z,18.03
2018-05-07T10:14:54.933Z,18.03
2018-05-07T10:15:54.814Z,18.18
2018-05-07T10:16:54.698Z,18.09
2018-05-07T10:17:54.579Z,17.92
2018-05-07T10:18:54.460Z,17.92
2018-05-07T10:19:54.341Z,17.92
2018-05-07T10:20:54.225Z,17.88
2018-05-07T10:21:54.104Z,17.97
2018-05-07T10:22:53.988Z,17.63
2018-05-07T10:23:53.869Z,17.66
2018-05-07T10:24:53.752Z,17.57
2018-05-07T10:25:53.629Z,17.54
2018-05-07T10:26:53.511Z,17.54
2018-05-07T10:27:53.400Z,17.63
2018-05-07T10:28:53.276Z,17.81
2018-05-07T10:29:53.226Z,18.00
2018-05-07T10:30:53.035Z,18.02
2018-05-07T10:31:52.955Z,17.89
2018-05-07T10:32:52.801Z,17.81
2018-05-07T10:33:52.682Z,17.78
2018-05-07T10:34:52.563Z,17.84
2018-05-07T10:35:52.443Z,17.69
2018-05-07T10:36:52.328Z,17.62
2018-05-07T10:37:52.207Z,17.63
2018-05-07T10:38:52.090Z,17.67
2018-05-07T10:39:51.974Z,17.76
2018-05-07T10:40:51.851Z,17.91
2018-05-07T10:41:51.733Z,17.99
2018-05-07T10:42:51.615Z,18.07
2018-05-07T10:43:51.496Z,18.00
2018-05-07T10:44:51.378Z,18.07
2018-05-07T10:45:51.260Z,18.07
2018-05-07T10:46:51.142Z,18.04
2018-05-07T10:47:51.023Z,17.99
2018-05-07T10:48:50.903Z,18.04
2018-05-07T10:49:50.781Z,18.04
2018-05-07T10:50:50.667Z,18.09
2018-05-07T10:51:50.547Z,18.07
2018-05-07T10:52:50.430Z,18.02
2018-05-07T10:53:50.311Z,17.92
2018-05-07T10:54:50.198Z,18.02
2018-05-07T10:55:50.074Z,17.85
2018-05-07T10:56:49.955Z,17.87
2018-05-07T10:57:49.835Z,17.66
2018-05-07T10:58:49.718Z,17.47
2018-05-07T10:59:49.600Z,17.33
2018-05-07T11:00:49.484Z,17.33
2018-05-07T11:01:49.363Z,17.29
2018-05-07T11:02:49.243Z,17.44
2018-05-07T11:03:49.125Z,17.47
2018-05-07T11:04:49.006Z,17.55
2018-05-07T11:05:48.887Z,17.50
2018-05-07T11:06:48.770Z,17.63
2018-05-07T11:07:48.650Z,17.76
2018-05-07T11:08:48.535Z,17.78
2018-05-07T11:09:48.412Z,17.82
2018-05-07T11:10:48.296Z,17.79
2018-05-07T11:11:48.176Z,17.71
2018-05-07T11:12:48.059Z,17.74
2018-05-07T11:13:47.939Z,17.59
2018-05-07T11:14:47.822Z,17.70
2018-05-07T11:15:47.699Z,17.71
2018-05-07T11:16:47.588Z,17.76
2018-05-07T11:17:47.466Z,17.62
2018-05-07T11:18:47.346Z,17.59
2018-05-07T11:19:47.308Z,17.25
2018-05-07T11:20:47.115Z,17.00
2018-05-07T11:21:46.992Z,16.99
2018-05-07T11:22:46.870Z,17.06
2018-05-07T11:23:46.757Z,17.22
2018-05-07T11:24:46.634Z,17.30
2018-05-07T11:25:46.516Z,17.62
2018-05-07T11:26:46.401Z,18.13
2018-05-07T11:27:46.284Z,18.92
2018-05-07T11:28:46.158Z,19.28
2018-05-07T11:29:46.040Z,19.72
2018-05-07T11:30:45.924Z,20.12
2018-05-07T11:31:45.803Z,20.27
2018-05-07T11:32:45.688Z,20.77
2018-05-07T11:33:45.569Z,20.90
2018-05-07T11:34:45.452Z,21.24
2018-05-07T11:35:45.335Z,21.91
2018-05-07T11:36:45.221Z,22.43
2018-05-07T11:37:45.102Z,22.87
2018-05-07T11:38:44.989Z,23.38
2018-05-07T11:39:44.872Z,23.02
2018-05-07T11:40:44.757Z,22.17
2018-05-07T11:41:44.640Z,21.66
2018-05-07T11:42:44.526Z,21.46
2018-05-07T11:43:44.409Z,21.08
2018-05-07T11:44:44.292Z,20.79
2018-05-07T11:45:44.178Z,20.77
2018-05-07T11:46:44.063Z,20.23
2018-05-07T11:47:43.965Z,20.08
2018-05-07T11:48:43.831Z,19.75
2018-05-07T11:49:43.717Z,19.58
2018-05-07T11:50:43.600Z,19.83
2018-05-07T11:51:43.484Z,20.64
2018-05-07T11:52:43.368Z,20.66
2018-05-07T11:53:43.252Z,21.14
2018-05-07T11:54:43.140Z,20.86
2018-05-07T11:55:43.022Z,20.74
2018-05-07T11:56:42.909Z,20.66
2018-05-07T11:57:42.793Z,20.77
2018-05-07T11:58:42.676Z,20.49
2018-05-07T11:59:42.557Z,20.38
2018-05-07T12:00:42.443Z,20.43
2018-05-07T12:01:42.327Z,20.24
2018-05-07T12:02:42.273Z,19.93
2018-05-07T12:03:42.100Z,19.53
2018-05-07T12:04:41.982Z,19.32
2018-05-07T12:05:41.866Z,19.14
2018-05-07T12:06:41.747Z,19.08
2018-05-07T12:07:41.700Z,19.54
2018-05-07T12:08:41.517Z,19.38
2018-05-07T12:09:41.401Z,19.47
2018-05-07T12:10:41.281Z,19.28
2018-05-07T12:11:41.166Z,19.21
2018-05-07T12:12:41.048Z,19.01
2018-05-07T12:13:40.934Z,18.64
2018-05-07T12:14:40.815Z,18.57
2018-05-07T12:15:40.713Z,18.47
2018-05-07T12:16:40.581Z,18.49
2018-05-07T12:17:40.468Z,18.50
2018-05-07T12:18:40.347Z,18.50
2018-05-07T12:19:40.230Z,18.06
2018-05-07T12:20:40.113Z,17.67
2018-05-07T12:21:39.994Z,17.36
2018-05-07T12:22:39.880Z,17.33
2018-05-07T12:23:39.764Z,17.17
2018-05-07T12:24:39.641Z,17.41
2018-05-07T12:25:39.525Z,17.10
2018-05-07T12:26:39.404Z,17.28
2018-05-07T12:27:39.286Z,17.30
2018-05-07T12:28:39.168Z,17.11
2018-05-07T12:29:39.053Z,16.93
2018-05-07T12:30:38.932Z,16.96
2018-05-07T12:31:38.987Z,16.71
2018-05-07T12:32:38.695Z,16.80
2018-05-07T12:33:38.576Z,16.86
2018-05-07T12:34:38.457Z,17.20
2018-05-07T12:35:38.337Z,17.23
2018-05-07T12:36:38.217Z,17.44
2018-05-07T12:37:38.177Z,17.54
2018-05-07T12:38:37.983Z,17.57
2018-05-07T12:39:37.864Z,17.55
2018-05-07T12:40:37.746Z,17.70
2018-05-07T12:41:37.626Z,17.62
2018-05-07T12:42:37.507Z,17.63
2018-05-07T12:43:37.386Z,17.73
2018-05-07T12:44:37.267Z,17.69
2018-05-07T12:45:37.151Z,17.81
2018-05-07T12:46:37.031Z,17.79
2018-05-07T12:47:36.914Z,18.00
2018-05-07T12:48:36.795Z,17.91
2018-05-07T12:49:36.675Z,17.74
2018-05-07T12:50:36.556Z,17.76
2018-05-07T12:51:36.440Z,17.62
2018-05-07T12:52:36.383Z,17.55
2018-05-07T12:53:36.199Z,17.36
2018-05-07T12:54:36.082Z,17.26